Time;durP1;ratioP1;P1;durP2;ratioP2;P2;SDS_P1;SDS_P2;PMS_P1;PMS_P2;Temp;Humidity;BMP_temperature;BMP_pressure;BME280_temperature;BME280_humidity;BME280_pressure;Samples;Min_cycle;Max_cycle;Signal;HPM_P1;HPM_P2
2023/11/12 00:01:17;;;;;;;2.53;0.80;;;;;;;11.32;100.00;101800.34;5049553;28;20052;-69
2023/11/12 00:03:44;;;;;;;3.47;1.20;;;;;;;11.58;100.00;101813.03;5049818;28;20033;-70
2023/11/12 00:06:11;;;;;;;2.63;1.00;;;;;;;11.30;100.00;101812.25;5049930;28;20047;-69
2023/11/12 00:08:36;;;;;;;1.55;0.70;;;;;;;11.29;100.00;101817.31;5030358;28;20032;-69
2023/11/12 00:11:02;;;;;;;2.15;0.70;;;;;;;11.07;100.00;101775.75;5049380;28;20063;-69
2023/11/12 00:13:28;;;;;;;2.03;0.70;;;;;;;11.44;100.00;101826.63;5049042;28;20036;-69
2023/11/12 00:15:55;;;;;;;3.47;0.70;;;;;;;11.20;100.00;101812.25;5049697;28;20032;-69
2023/11/12 00:18:23;;;;;;;1.85;0.60;;;;;;;10.97;100.00;101742.69;5049379;28;20029;-69
2023/11/12 00:20:51;;;;;;;2.00;0.70;;;;;;;11.37;100.00;101799.50;5049241;28;20576;-69
2023/11/12 00:23:17;;;;;;;2.05;0.65;;;;;;;11.20;100.00;101738.41;5031101;28;20029;-69
2023/11/12 00:25:43;;;;;;;3.15;0.63;;;;;;;11.65;100.00;101796.88;5049473;28;20136;-69
2023/11/12 00:28:09;;;;;;;1.23;0.68;;;;;;;11.12;100.00;101719.75;5048522;28;20036;-69
2023/11/12 00:30:34;;;;;;;2.00;0.75;;;;;;;10.97;100.00;101681.63;5049494;28;20032;-69
2023/11/12 00:33:00;;;;;;;0.98;0.60;;;;;;;11.37;100.00;101729.03;5048438;28;20047;-69
2023/11/12 00:35:25;;;;;;;2.25;0.70;;;;;;;11.48;100.00;101724.75;5049612;28;20025;-69
2023/11/12 00:37:51;;;;;;;1.30;0.60;;;;;;;11.35;100.00;101678.09;5049324;28;20045;-69
2023/11/12 00:40:17;;;;;;;0.95;0.32;;;;;;;11.55;100.00;101703.50;5049058;28;20056;-69
2023/11/12 00:42:43;;;;;;;2.15;0.50;;;;;;;11.71;100.00;101689.88;5048770;28;20411;-69
2023/11/12 00:45:09;;;;;;;2.03;0.60;;;;;;;11.39;100.00;101630.53;5048594;28;20025;-69
2023/11/12 00:47:34;;;;;;;2.05;0.50;;;;;;;11.37;100.00;101647.53;5048112;28;20556;-69
2023/11/12 00:50:01;;;;;;;0.98;0.50;;;;;;;11.23;100.00;101614.50;5048895;28;20033;-69
2023/11/12 00:52:26;;;;;;;1.63;0.65;;;;;;;10.58;100.00;101529.91;5047209;28;20025;-69
2023/11/12 00:54:52;;;;;;;1.70;0.47;;;;;;;10.84;100.00;101590.88;5048677;28;20051;-69
2023/11/12 00:57:17;;;;;;;1.95;0.60;;;;;;;10.73;100.00;101580.75;5048339;28;20091;-68
2023/11/12 00:59:43;;;;;;;3.95;0.50;;;;;;;10.56;100.00;101520.63;5048101;28;20419;-69
2023/11/12 01:02:10;;;;;;;1.67;0.43;;;;;;;11.12;100.00;101564.50;5049013;28;20465;-68
2023/11/12 01:04:36;;;;;;;2.70;0.50;;;;;;;11.12;100.00;101519.53;5046485;28;20078;-69
2023/11/12 01:07:01;;;;;;;3.53;0.65;;;;;;;10.78;100.00;101484.91;5048469;28;20025;-69
2023/11/12 01:09:28;;;;;;;1.58;0.60;;;;;;;10.76;100.00;101499.34;5048213;28;20086;-71
2023/11/12 01:11:54;;;;;;;1.10;0.50;;;;;;;10.49;100.00;101491.81;5048813;28;20040;-70
2023/11/12 01:14:19;;;;;;;1.08;0.50;;;;;;;10.94;100.00;101560.34;5047613;28;20056;-69
2023/11/12 01:16:45;;;;;;;3.03;0.60;;;;;;;11.11;100.00;101571.28;5046729;28;20090;-69
2023/11/12 01:19:11;;;;;;;1.98;0.85;;;;;;;10.87;100.00;101509.47;5047909;28;20496;-69
2023/11/12 01:21:36;;;;;;;2.10;0.50;;;;;;;10.95;100.00;101528.94;5048032;28;20029;-69
2023/11/12 01:24:02;;;;;;;3.33;0.80;;;;;;;11.14;100.00;101566.19;5047737;28;20033;-70
2023/11/12 01:26:27;;;;;;;1.67;0.70;;;;;;;10.83;100.00;101501.03;5047856;28;20496;-68
2023/11/12 01:28:53;;;;;;;2.03;0.80;;;;;;;10.29;100.00;101435.97;5046819;28;20568;-69
2023/11/12 01:31:19;;;;;;;1.63;0.65;;;;;;;10.92;100.00;101553.53;5030544;28;20055;-70
2023/11/12 01:33:45;;;;;;;1.80;0.82;;;;;;;10.84;100.00;101553.59;5047680;28;20044;-69
2023/11/12 01:36:11;;;;;;;1.35;0.90;;;;;;;10.50;100.00;101521.47;5047646;28;20025;-70
2023/11/12 01:38:36;;;;;;;2.03;0.90;;;;;;;10.40;100.00;101522.34;5048025;28;20017;-69
2023/11/12 01:41:03;;;;;;;2.78;0.90;;;;;;;10.62;100.00;101584.19;5029647;28;20029;-71
2023/11/12 01:43:30;;;;;;;2.47;1.10;;;;;;;10.28;100.00;101542.72;5048121;28;20037;-71
2023/11/12 01:45:57;;;;;;;2.67;0.90;;;;;;;10.48;100.00;101581.66;5046473;28;20269;-71
2023/11/12 01:48:23;;;;;;;2.15;0.82;;;;;;;10.50;100.00;101614.72;5046853;28;20041;-71
2023/11/12 01:50:49;;;;;;;1.50;1.00;;;;;;;10.28;100.00;101591.03;5030069;28;20047;-70
2023/11/12 01:53:16;;;;;;;1.40;0.80;;;;;;;10.10;100.00;101571.53;5048625;28;20071;-71
2023/11/12 01:55:41;;;;;;;1.85;1.00;;;;;;;10.08;100.00;101585.88;5047796;28;20025;-70
2023/11/12 01:58:09;;;;;;;1.50;0.80;;;;;;;10.42;100.00;101668.97;5046812;28;20465;-70
2023/11/12 02:00:39;;;;;;;1.98;1.10;;;;;;;10.38;100.00;101652.00;5029515;28;20029;-70
2023/11/12 02:03:06;;;;;;;1.88;0.80;;;;;;;10.37;100.00;101657.97;5047187;28;20039;-70
2023/11/12 02:05:32;;;;;;;1.98;0.82;;;;;;;9.95;100.00;101602.00;5029469;28;20083;-70
2023/11/12 02:08:00;;;;;;;2.33;1.00;;;;;;;9.94;100.00;101613.00;5029630;28;20040;-70
2023/11/12 02:10:28;;;;;;;2.35;1.00;;;;;;;10.22;100.00;101673.19;5047550;28;20036;-70
2023/11/12 02:12:55;;;;;;;1.50;0.93;;;;;;;10.32;100.00;101705.41;5046030;28;20109;-70
2023/11/12 02:15:21;;;;;;;2.22;1.00;;;;;;;9.87;100.00;101634.16;5047064;28;20568;-70
2023/11/12 02:17:47;;;;;;;1.15;0.90;;;;;;;10.33;100.00;101721.50;5047075;28;20021;-69
2023/11/12 02:20:16;;;;;;;3.88;1.00;;;;;;;10.25;100.00;101723.19;5047375;28;20032;-69
2023/11/12 02:22:43;;;;;;;2.28;1.05;;;;;;;9.96;100.00;101662.13;5047254;28;20078;-71
2023/11/12 02:25:09;;;;;;;1.58;0.80;;;;;;;9.88;100.00;101665.50;5047030;28;20040;-70
2023/11/12 02:27:35;;;;;;;2.08;0.82;;;;;;;9.97;100.00;101656.19;5047310;28;20029;-69
2023/11/12 02:30:01;;;;;;;1.88;1.10;;;;;;;10.30;100.00;101714.72;5047194;28;20056;-69
2023/11/12 02:32:31;;;;;;;1.67;1.10;;;;;;;10.03;100.00;101656.19;5046792;28;20403;-70
2023/11/12 02:34:57;;;;;;;2.67;0.95;;;;;;;10.00;100.00;101670.59;5046029;28;20029;-69
2023/11/12 02:37:24;;;;;;;1.58;0.85;;;;;;;10.05;100.00;101679.91;5046957;28;20458;-71
2023/11/12 02:39:50;;;;;;;2.78;0.85;;;;;;;10.41;100.00;101733.38;5046755;28;20121;-70
2023/11/12 02:42:17;;;;;;;2.15;0.82;;;;;;;10.27;100.00;101726.56;5046800;28;20643;-69
2023/11/12 02:44:45;;;;;;;2.30;1.08;;;;;;;10.37;100.00;101734.22;5028774;28;20462;-69
2023/11/12 02:47:11;;;;;;;4.28;1.52;;;;;;;10.34;100.00;101748.59;5045208;28;20029;-69
2023/11/12 02:50:14;;;;;;;1.85;1.33;;;;;;;10.44;100.00;101747.78;5046809;28;20107;-70
2023/11/12 02:52:39;;;;;;;2.28;1.40;;;;;;;9.98;100.00;101670.56;5045553;28;20102;-70
2023/11/12 02:55:05;;;;;;;3.40;1.50;;;;;;;10.40;100.00;101746.94;5046401;28;20475;-69
2023/11/12 02:57:31;;;;;;;4.13;1.40;;;;;;;10.30;100.00;101745.22;5046213;28;21648;-69
2023/11/12 02:59:56;;;;;;;2.40;1.08;;;;;;;10.23;100.00;101728.28;5045891;28;20056;-69
2023/11/12 03:02:22;;;;;;;3.50;1.40;;;;;;;10.35;100.00;101763.88;5046706;28;20484;-69
2023/11/12 03:04:47;;;;;;;1.90;0.88;;;;;;;9.83;100.00;101688.34;5046671;28;20055;-70
2023/11/12 03:07:13;;;;;;;1.92;1.00;;;;;;;9.73;100.00;101671.38;5046431;28;20411;-69
2023/11/12 03:09:39;;;;;;;3.03;1.02;;;;;;;10.11;100.00;101752.81;5046242;28;20490;-69
2023/11/12 03:12:04;;;;;;;1.88;1.02;;;;;;;9.86;100.00;101695.97;5046489;28;20035;-69
2023/11/12 03:14:31;;;;;;;2.35;1.10;;;;;;;10.14;100.00;101761.28;5046280;28;20115;-69
2023/11/12 03:16:56;;;;;;;1.63;0.88;;;;;;;10.12;100.00;101754.50;5046391;28;20028;-71
2023/11/12 03:19:23;;;;;;;1.40;0.90;;;;;;;10.32;100.00;101779.13;5045837;28;20515;-69
2023/11/12 03:21:52;;;;;;;3.25;1.35;;;;;;;10.13;100.00;101767.22;5046664;28;20543;-69
2023/11/12 03:24:18;;;;;;;2.80;1.13;;;;;;;9.66;100.00;101678.97;5045795;28;20032;-68
2023/11/12 03:26:44;;;;;;;2.40;1.00;;;;;;;9.81;100.00;101715.41;5046290;28;20102;-69
2023/11/12 03:29:09;;;;;;;3.03;1.00;;;;;;;9.58;100.00;101673.88;5028307;28;20454;-69
2023/11/12 03:31:35;;;;;;;1.48;0.90;;;;;;;10.23;100.00;101779.09;5044505;28;20059;-69
2023/11/12 03:34:02;;;;;;;1.73;0.90;;;;;;;9.91;100.00;101740.00;5046397;28;20458;-71
2023/11/12 03:36:28;;;;;;;1.10;1.00;;;;;;;10.18;100.00;101795.19;5046010;28;20358;-70
2023/11/12 03:38:54;;;;;;;2.00;1.10;;;;;;;10.12;100.00;101785.84;5046416;28;20130;-68
2023/11/12 03:41:19;;;;;;;1.80;0.90;;;;;;;9.75;100.00;101730.63;5045560;28;20045;-69
2023/11/12 03:43:45;;;;;;;1.60;1.00;;;;;;;10.00;100.00;101783.22;5045587;28;20122;-69
2023/11/12 03:46:10;;;;;;;3.60;0.90;;;;;;;9.68;100.00;101744.16;5045087;28;20032;-68
2023/11/12 03:48:36;;;;;;;2.85;1.40;;;;;;;9.39;100.00;101687.31;5046188;28;20483;-69
2023/11/12 03:51:01;;;;;;;2.13;1.10;;;;;;;10.05;100.00;101804.44;5028157;28;20029;-69
2023/11/12 03:53:27;;;;;;;3.75;1.17;;;;;;;10.09;100.00;101826.47;5046072;28;20392;-69
2023/11/12 03:55:54;;;;;;;5.90;2.38;;;;;;;9.79;100.00;101813.63;5027880;28;20106;-69
2023/11/12 03:58:19;;;;;;;6.90;4.80;;;;;;;8.73;100.00;101756.25;5028151;28;20435;-69
2023/11/12 04:00:45;;;;;;;4.10;3.30;;;;;;;8.60;100.00;101760.38;5046645;28;20033;-70
2023/11/12 04:03:10;;;;;;;2.65;1.65;;;;;;;8.77;100.00;101820.53;5028439;28;20491;-71
2023/11/12 04:05:36;;;;;;;2.75;1.38;;;;;;;7.98;100.00;101730.16;5048871;28;20159;-70
2023/11/12 04:08:02;;;;;;;3.05;1.90;;;;;;;8.63;100.00;101845.75;5048303;28;20029;-70
2023/11/12 04:10:28;;;;;;;8.45;3.50;;;;;;;7.84;100.00;101773.88;5049733;28;20041;-70
2023/11/12 04:12:53;;;;;;;8.63;4.88;;;;;;;8.03;100.00;101801.97;5049921;28;20032;-71
2023/11/12 04:15:19;;;;;;;7.47;4.40;;;;;;;8.33;100.00;101842.88;5049066;28;20044;-69
2023/11/12 04:17:44;;;;;;;10.13;5.68;;;;;;;8.68;100.00;101900.72;5049566;28;20041;-69
2023/11/12 04:20:10;;;;;;;8.43;4.95;;;;;;;8.42;100.00;101874.25;5048540;28;20086;-68
2023/11/12 04:22:41;;;;;;;7.97;4.53;;;;;;;8.37;100.00;101864.91;5049161;28;20107;-69
2023/11/12 04:25:07;;;;;;;8.55;4.40;;;;;;;8.51;100.00;101936.88;5049281;28;20035;-70
2023/11/12 04:27:32;;;;;;;6.78;4.00;;;;;;;8.76;100.00;101979.41;5031612;28;20033;-68
2023/11/12 04:29:58;;;;;;;8.05;5.55;;;;;;;8.19;100.00;101917.84;5049357;28;20834;-69
2023/11/12 04:32:23;;;;;;;6.85;4.35;;;;;;;7.37;100.00;101888.78;5048809;28;20487;-69
2023/11/12 04:34:49;;;;;;;7.07;4.00;;;;;;;8.29;100.00;101995.72;5049141;28;20388;-68
2023/11/12 04:37:14;;;;;;;4.28;2.92;;;;;;;8.35;100.00;101990.72;5048731;28;20048;-69
2023/11/12 04:39:40;;;;;;;7.97;3.50;;;;;;;7.92;100.00;101938.59;5048600;28;20399;-69
2023/11/12 04:42:06;;;;;;;6.47;3.28;;;;;;;7.91;100.00;101939.41;5049454;28;20036;-70
2023/11/12 04:44:32;;;;;;;4.00;2.22;;;;;;;8.04;100.00;101956.50;5049075;28;20491;-70
2023/11/12 04:46:57;;;;;;;4.35;2.42;;;;;;;7.73;100.00;101908.75;5049630;28;20025;-71
2023/11/12 04:49:24;;;;;;;8.02;2.80;;;;;;;8.19;100.00;101969.38;5049580;28;20041;-70
2023/11/12 04:51:50;;;;;;;5.15;3.00;;;;;;;7.85;100.00;101957.03;5048617;28;20495;-68
2023/11/12 04:54:15;;;;;;;7.38;3.33;;;;;;;7.83;100.00;101974.75;5048697;28;20025;-70
2023/11/12 04:56:47;;;;;;;6.57;2.92;;;;;;;8.08;100.00;102019.00;5030645;28;20556;-71
2023/11/12 04:59:13;;;;;;;;;;;;;;;8.15;100.00;102038.56;5048737;28;20043;-69
2023/11/12 05:01:39;;;;;;;4.35;1.80;;;;;;;7.84;100.00;101960.41;5048385;28;19916;-69
2023/11/12 05:04:05;;;;;;;4.25;1.55;;;;;;;8.31;100.00;102032.06;5048347;28;20415;-70
2023/11/12 05:06:31;;;;;;;3.95;1.77;;;;;;;7.74;100.00;101954.34;5030430;28;20470;-69
2023/11/12 05:08:57;;;;;;;4.07;1.60;;;;;;;7.86;100.00;101986.63;5049205;28;20021;-70
2023/11/12 05:11:22;;;;;;;4.20;2.20;;;;;;;8.10;100.00;102042.69;5048576;28;20065;-69
2023/11/12 05:13:48;;;;;;;4.40;2.30;;;;;;;7.85;100.00;102018.66;5048276;28;20037;-73
2023/11/12 05:16:13;;;;;;;7.43;3.58;;;;;;;7.68;100.00;101984.66;5048446;28;20028;-70
2023/11/12 05:18:39;;;;;;;6.70;3.72;;;;;;;8.00;100.00;102050.13;5030106;28;20119;-70
2023/11/12 05:21:06;;;;;;;7.53;4.90;;;;;;;8.11;100.00;102046.94;5048651;28;20031;-71
2023/11/12 05:23:32;;;;;;;9.55;5.18;;;;;;;8.02;100.00;102064.53;5047959;28;20124;-70
2023/11/12 05:25:59;;;;;;;13.45;9.00;;;;;;;7.46;100.00;102002.81;5029687;28;20396;-70
2023/11/12 05:28:26;;;;;;;9.25;6.05;;;;;;;7.40;100.00;102007.78;5047081;28;20482;-70
2023/11/12 05:30:52;;;;;;;8.00;4.55;;;;;;;7.55;100.00;102008.03;5048189;28;20108;-70
2023/11/12 05:33:19;;;;;;;3.58;2.22;;;;;;;7.46;100.00;102014.63;5030349;28;20029;-71
2023/11/12 05:35:44;;;;;;;3.30;1.60;;;;;;;7.51;100.00;102023.13;5047870;28;20028;-70
2023/11/12 05:38:10;;;;;;;2.55;1.30;;;;;;;7.42;100.00;102017.91;5048004;28;20450;-70
2023/11/12 05:40:35;;;;;;;3.75;1.42;;;;;;;7.79;100.00;102088.59;5047948;28;20029;-68
2023/11/12 05:43:01;;;;;;;4.05;2.80;;;;;;;7.55;100.00;102048.53;5047416;28;20569;-72
2023/11/12 05:45:26;;;;;;;5.10;2.65;;;;;;;7.77;100.00;102097.84;5030114;28;20529;-69
2023/11/12 05:47:52;;;;;;;4.38;1.60;;;;;;;7.72;100.00;102105.38;5047610;28;20468;-67
2023/11/12 05:50:17;;;;;;;2.85;1.58;;;;;;;7.44;100.00;102039.03;5047099;28;20107;-69
2023/11/12 05:52:43;;;;;;;5.65;2.28;;;;;;;7.47;100.00;102026.44;5046451;28;20035;-68
2023/11/12 05:55:10;;;;;;;3.75;2.03;;;;;;;8.09;100.00;102116.97;5029075;28;20028;-69
2023/11/12 05:57:36;;;;;;;2.85;1.70;;;;;;;8.17;100.00;102128.09;5047701;28;20041;-70
2023/11/12 06:00:05;;;;;;;4.28;1.98;;;;;;;8.56;100.00;102130.44;5046996;28;20094;-69
2023/11/12 06:02:32;;;;;;;7.30;2.22;;;;;;;9.04;100.00;102120.97;5028251;28;20040;-70
2023/11/12 06:04:57;;;;;;;7.93;2.70;;;;;;;8.42;100.00;102149.63;5047536;28;20044;-70
2023/11/12 06:07:23;;;;;;;6.15;2.92;;;;;;;7.85;100.00;102069.31;5048024;28;20119;-70
2023/11/12 06:09:48;;;;;;;8.10;2.60;;;;;;;7.85;100.00;102083.66;5047030;28;20028;-69
2023/11/12 06:12:14;;;;;;;5.80;3.20;;;;;;;7.96;100.00;102078.78;5047270;28;20037;-69
2023/11/12 06:14:41;;;;;;;5.65;2.65;;;;;;;8.73;100.00;102142.50;5047040;28;20036;-70
2023/11/12 06:17:06;;;;;;;10.10;4.63;;;;;;;10.76;100.00;102205.72;5047077;28;20047;-70
2023/11/12 06:19:32;;;;;;;11.07;4.55;;;;;;;12.74;100.00;102264.25;5046793;28;20418;-68
2023/11/12 06:22:00;;;;;;;9.35;4.47;;;;;;;17.16;100.00;102485.69;5047087;28;20396;-69
2023/11/12 06:24:25;;;;;;;9.13;3.53;;;;;;;15.77;100.00;102310.31;5047207;28;20047;-70
2023/11/12 06:26:51;;;;;;;8.48;3.30;;;;;;;16.92;100.00;102353.25;5046120;28;20028;-70
2023/11/12 06:29:16;;;;;;;10.18;2.92;;;;;;;16.01;100.00;102201.38;5028818;28;20040;-71
2023/11/12 06:31:42;;;;;;;6.90;3.33;;;;;;;18.13;100.00;102264.34;5046024;28;20037;-69
2023/11/12 06:34:07;;;;;;;8.73;3.30;;;;;;;16.96;100.00;102169.84;5044991;28;20033;-68
2023/11/12 06:36:33;;;;;;;6.63;2.88;;;;;;;16.70;100.00;102089.84;5046622;28;20099;-70
2023/11/12 06:38:58;;;;;;;7.10;3.60;;;;;;;16.45;100.00;101929.34;5045036;28;20032;-69
2023/11/12 06:41:24;;;;;;;5.85;3.13;;;;;;;17.98;100.00;101868.22;5047057;28;20492;-69
2023/11/12 06:43:49;;;;;;;7.85;3.00;;;;;;;17.39;100.00;101762.66;5046102;28;20067;-70
2023/11/12 06:46:15;;;;;;;7.07;2.95;;;;;;;17.94;100.00;101671.00;5046308;28;20059;-69
2023/11/12 06:48:40;;;;;;;10.38;3.80;;;;;;;15.79;100.00;101520.25;5046260;28;20495;-69
2023/11/12 06:51:06;;;;;;;6.55;4.20;;;;;;;13.20;100.00;101477.53;5045863;28;20121;-70
2023/11/12 06:53:31;;;;;;;7.43;3.28;;;;;;;12.48;100.00;101447.00;5047023;28;20056;-70
2023/11/12 06:55:57;;;;;;;9.75;3.40;;;;;;;11.83;100.00;101482.53;5045204;28;20082;-69
2023/11/12 06:58:24;;;;;;;11.82;4.40;;;;;;;11.03;100.00;101444.94;5047040;28;20045;-70
2023/11/12 07:00:50;;;;;;;6.28;3.20;;;;;;;10.98;100.00;101485.66;5046479;28;20051;-70
2023/11/12 07:03:16;;;;;;;14.73;3.30;;;;;;;10.92;100.00;101556.94;5045686;28;20033;-71
2023/11/12 07:05:42;;;;;;;10.77;5.10;;;;;;;11.31;100.00;101658.59;5046368;28;20048;-70
2023/11/12 07:08:08;;;;;;;6.25;3.20;;;;;;;11.68;100.00;101674.59;5046358;28;20071;-70
2023/11/12 07:10:34;;;;;;;7.60;3.03;;;;;;;11.20;100.00;101641.66;5045001;28;20057;-71
2023/11/12 07:13:00;;;;;;;8.60;2.72;;;;;;;10.98;100.00;101688.41;5045041;28;20112;-70
2023/11/12 07:15:26;;;;;;;8.75;2.60;;;;;;;10.95;100.00;101665.50;5027941;28;20087;-70
2023/11/12 07:17:52;;;;;;;6.93;3.05;;;;;;;11.70;100.00;101761.22;5045947;28;20488;-70
2023/11/12 07:20:18;;;;;;;6.20;2.40;;;;;;;11.21;100.00;101720.56;5046010;28;20029;-72
2023/11/12 07:22:46;;;;;;;5.85;2.53;;;;;;;11.35;100.00;101739.22;5046044;28;20029;-71
2023/11/12 07:25:12;;;;;;;5.72;2.45;;;;;;;11.11;100.00;101700.25;5046353;28;20029;-70
2023/11/12 07:27:38;;;;;;;5.85;2.40;;;;;;;11.40;100.00;101740.91;5045687;28;20043;-70
2023/11/12 07:30:05;;;;;;;6.15;2.63;;;;;;;11.06;100.00;101686.69;5045959;28;20032;-69
2023/11/12 07:32:30;;;;;;;6.20;2.83;;;;;;;11.64;100.00;101781.59;5026220;28;20033;-69
2023/11/12 07:34:57;;;;;;;3.35;2.15;;;;;;;11.34;100.00;101777.44;5046351;28;20090;-71
2023/11/12 07:37:22;;;;;;;6.45;2.33;;;;;;;10.84;100.00;101692.66;5046435;28;20032;-70
2023/11/12 07:39:48;;;;;;;6.78;2.60;;;;;;;11.45;100.00;101762.94;5048427;28;20033;-70
2023/11/12 07:42:14;;;;;;;5.93;2.33;;;;;;;11.42;100.00;101754.47;5049903;28;20040;-70
2023/11/12 07:44:39;;;;;;;5.35;2.30;;;;;;;11.09;100.00;101697.69;5049787;28;20510;-70
2023/11/12 07:47:05;;;;;;;6.05;2.10;;;;;;;10.98;100.00;101760.50;5049710;28;20033;-69
2023/11/12 07:49:31;;;;;;;6.22;2.30;;;;;;;11.88;100.00;101794.28;5050009;28;20429;-69
2023/11/12 07:51:56;;;;;;;5.30;2.70;;;;;;;11.44;100.00;101766.38;5049757;28;20063;-70
2023/11/12 07:54:23;;;;;;;8.15;2.30;;;;;;;11.31;100.00;101708.66;5031725;28;20455;-70
2023/11/12 07:56:48;;;;;;;4.07;2.47;;;;;;;11.41;100.00;101714.59;5049351;28;20548;-72
2023/11/12 07:59:14;;;;;;;3.45;1.92;;;;;;;11.90;100.00;101793.44;5049875;28;20032;-69
2023/11/12 08:01:39;;;;;;;5.10;1.73;;;;;;;11.79;100.00;101791.75;5049443;28;20155;-69
2023/11/12 08:04:08;;;;;;;4.03;1.67;;;;;;;11.49;100.00;101749.34;5031139;28;20025;-72
2023/11/12 08:06:34;;;;;;;2.92;1.80;;;;;;;11.99;100.00;101833.31;5046887;28;20040;-69
2023/11/12 08:09:00;;;;;;;3.92;2.08;;;;;;;11.20;100.00;101746.06;5049315;28;20488;-69
2023/11/12 08:11:25;;;;;;;4.38;1.90;;;;;;;11.07;100.00;101752.84;5049363;28;20033;-68
2023/11/12 08:13:51;;;;;;;4.88;1.92;;;;;;;12.04;100.00;101854.56;5049825;28;20032;-70
2023/11/12 08:16:16;;;;;;;9.13;1.80;;;;;;;12.66;100.00;101874.63;5049471;28;20033;-71
2023/11/12 08:18:43;;;;;;;3.08;2.22;;;;;;;12.66;100.00;101883.13;5031233;28;20594;-69
2023/11/12 08:21:09;;;;;;;4.75;2.15;;;;;;;12.30;100.00;101885.88;5049245;28;20037;-69
2023/11/12 08:23:35;;;;;;;3.78;2.40;;;;;;;12.15;100.00;101893.59;5048239;28;20036;-69
2023/11/12 08:26:00;;;;;;;5.13;2.00;;;;;;;12.46;100.00;101894.31;5049256;28;20033;-69
2023/11/12 08:28:26;;;;;;;3.97;1.75;;;;;;;12.57;100.00;101902.75;5049087;28;20500;-69
2023/11/12 08:30:51;;;;;;;7.20;4.97;;;;;;;12.01;100.00;101855.41;5030300;28;20029;-68
2023/11/12 08:33:18;;;;;;;4.50;3.20;;;;;;;12.11;100.00;101908.06;5049178;28;20025;-70
2023/11/12 08:35:43;;;;;;;4.78;2.00;;;;;;;12.35;100.00;101857.81;5049164;28;20028;-69
2023/11/12 08:38:09;;;;;;;2.35;1.65;;;;;;;12.59;100.00;101894.25;5048757;28;20514;-69
2023/11/12 08:40:39;;;;;;;3.13;2.08;;;;;;;12.47;100.00;101865.38;5048355;28;20043;-72
2023/11/12 08:43:05;;;;;;;2.70;1.95;;;;;;;12.87;100.00;101946.00;5047419;28;20078;-69
2023/11/12 08:45:30;;;;;;;3.33;1.65;;;;;;;12.76;100.00;101938.38;5048380;28;20539;-70
2023/11/12 08:47:56;;;;;;;1.70;1.30;;;;;;;12.22;100.00;101882.53;5048892;28;20581;-70
2023/11/12 08:50:22;;;;;;;3.42;1.98;;;;;;;12.89;100.00;101931.53;5046337;28;20044;-70
2023/11/12 08:52:48;;;;;;;4.13;1.95;;;;;;;13.16;100.00;101939.03;5047324;28;20029;-72
2023/11/12 08:55:13;;;;;;;5.28;2.50;;;;;;;13.02;100.00;101931.44;5048171;28;20025;-72
2023/11/12 08:57:41;;;;;;;3.72;1.80;;;;;;;13.27;100.00;101878.47;5030944;28;20037;-71
2023/11/12 09:00:07;;;;;;;6.75;2.40;;;;;;;13.60;100.00;101947.19;5030205;28;20032;-71
2023/11/12 09:02:32;;;;;;;3.38;1.77;;;;;;;12.87;100.00;101859.19;5046194;28;20492;-71
2023/11/12 09:04:59;;;;;;;2.42;1.60;;;;;;;13.65;100.00;101919.88;5048257;28;20060;-72
2023/11/12 09:07:24;;;;;;;2.47;1.55;;;;;;;13.44;100.00;101848.53;5030453;28;20490;-72
2023/11/12 09:09:50;;;;;;;3.22;1.75;;;;;;;13.57;100.00;101883.31;5048153;28;20100;-72
2023/11/12 09:12:16;;;;;;;3.65;1.80;;;;;;;12.84;100.00;101806.44;5048076;28;20063;-71
2023/11/12 09:14:41;;;;;;;2.97;1.50;;;;;;;13.83;100.00;101866.00;5046100;28;20082;-72
2023/11/12 09:17:07;;;;;;;4.35;1.30;;;;;;;13.18;100.00;101799.38;5048381;28;20033;-70
2023/11/12 09:19:32;;;;;;;1.58;1.23;;;;;;;13.73;100.00;101850.78;5048072;28;20033;-69
2023/11/12 09:21:58;;;;;;;3.90;1.40;;;;;;;14.06;100.00;101813.75;5046704;28;20047;-70
2023/11/12 09:24:24;;;;;;;1.92;1.10;;;;;;;14.34;100.00;101815.13;5047868;28;20041;-71
2023/11/12 09:26:50;;;;;;;3.08;1.13;;;;;;;14.61;100.00;101795.09;5047723;28;20112;-70
2023/11/12 09:29:15;;;;;;;1.90;1.20;;;;;;;14.36;100.00;101752.78;5046167;28;20028;-72
2023/11/12 09:31:41;;;;;;;2.17;1.10;;;;;;;14.40;100.00;101774.91;5047490;28;20044;-72
2023/11/12 09:34:06;;;;;;;3.40;1.20;;;;;;;15.05;100.00;101766.19;5047318;28;20108;-70
2023/11/12 09:36:33;;;;;;;2.35;1.40;;;;;;;14.83;100.00;101733.28;5046671;28;20029;-70
2023/11/12 09:39:00;;;;;;;3.95;1.60;;;;;;;14.97;100.00;101692.91;5047165;28;20037;-71
2023/11/12 09:41:26;;;;;;;5.05;1.55;;;;;;;14.88;100.00;101637.56;5047712;28;20039;-73
2023/11/12 09:43:53;;;;;;;3.67;1.50;;;;;;;15.01;100.00;101626.22;5029290;28;20128;-69
2023/11/12 09:46:20;;;;;;;2.92;1.27;;;;;;;15.03;100.00;101603.97;5047615;28;20029;-70
2023/11/12 09:48:47;;;;;;;2.00;1.40;;;;;;;15.03;100.00;101626.19;5047854;28;20456;-72
2023/11/12 09:51:13;;;;;;;2.10;1.20;;;;;;;14.56;100.00;101546.00;5047153;28;20032;-71
2023/11/12 09:53:41;;;;;;;2.97;1.45;;;;;;;15.46;100.00;101606.50;5047036;28;20120;-69
2023/11/12 09:56:10;;;;;;;2.33;1.45;;;;;;;14.68;100.00;101493.69;5047403;28;20029;-72
2023/11/12 09:58:45;;;;;;;3.13;1.45;;;;;;;15.05;100.00;101556.13;5046985;28;20033;-70
2023/11/12 10:01:12;;;;;;;3.63;1.45;;;;;;;14.60;100.00;101501.53;5046313;28;20028;-71
2023/11/12 10:03:46;;;;;;;5.15;1.30;;;;;;;14.72;100.00;101492.78;5029711;28;20033;-70
2023/11/12 10:06:12;;;;;;;4.03;1.33;;;;;;;15.44;100.00;101547.59;5047160;28;20041;-70
2023/11/12 10:08:38;;;;;;;2.83;1.10;;;;;;;15.67;100.00;101553.91;5046114;28;20119;-73
2023/11/12 10:11:17;;;;;;;2.60;1.17;;;;;;;15.28;100.00;101445.41;5045255;28;20029;-69
2023/11/12 10:13:42;;;;;;;3.92;1.27;;;;;;;15.93;100.00;101546.41;5047202;28;20043;-71
2023/11/12 10:16:22;;;;;;;3.85;1.80;;;;;;;16.10;100.00;101536.59;5046785;28;20028;-70
2023/11/12 10:18:47;;;;;;;4.05;2.88;;;;;;;15.93;100.00;101461.75;5028669;28;20040;-70
2023/11/12 10:21:13;;;;;;;3.03;1.20;;;;;;;16.10;100.00;101455.28;5029351;28;20033;-73
2023/11/12 10:23:39;;;;;;;2.70;1.40;;;;;;;16.14;100.00;101489.44;5046849;28;20028;-70
2023/11/12 10:26:14;;;;;;;2.05;1.00;;;;;;;16.43;100.00;101492.91;5047128;28;20040;-73
2023/11/12 10:28:40;;;;;;;2.42;1.00;;;;;;;16.62;100.00;101495.00;5046404;28;20021;-70
2023/11/12 10:31:09;;;;;;;1.88;0.70;;;;;;;17.24;100.00;101512.81;5046284;28;20029;-70
2023/11/12 10:33:36;;;;;;;1.75;0.90;;;;;;;16.85;100.00;101425.78;5028813;28;20483;-71
2023/11/12 10:36:10;;;;;;;1.95;0.68;;;;;;;16.74;100.00;101450.97;5044903;28;20478;-70
2023/11/12 10:38:50;;;;;;;2.85;0.80;;;;;;;17.27;100.00;101512.69;5045663;28;20029;-71
2023/11/12 10:41:16;;;;;;;4.45;0.90;;;;;;;17.78;100.00;101571.16;5046507;28;20140;-70
2023/11/12 10:43:56;;;;;;;3.72;1.00;;;;;;;17.78;100.00;101686.94;5045542;28;20112;-71
2023/11/12 10:46:24;;;;;;;3.20;0.85;;;;;;;17.86;100.00;101803.38;5046480;28;20036;-70
2023/11/12 10:48:51;;;;;;;2.70;0.90;;;;;;;17.86;100.00;102073.63;5046137;28;20135;-71
2023/11/12 10:51:18;;;;;;;3.45;0.90;;;;;;;18.13;100.00;102528.72;5046573;28;20434;-71
2023/11/12 10:53:45;;;;;;;3.15;0.60;;;;;;;18.22;100.00;102566.34;5046322;28;20036;-71
2023/11/12 10:56:11;;;;;;;2.38;0.73;;;;;;;18.10;100.00;102518.50;5046201;28;20499;-71
2023/11/12 10:58:37;;;;;;;2.58;0.60;;;;;;;18.53;100.00;102474.75;5046000;28;20067;-71
2023/11/12 11:01:04;;;;;;;2.65;0.80;;;;;;;18.55;100.00;102370.75;5046245;28;20066;-71
2023/11/12 11:03:32;;;;;;;2.80;0.70;;;;;;;18.30;100.00;102273.41;5046304;28;20028;-71
2023/11/12 11:06:02;;;;;;;3.40;1.15;;;;;;;18.88;100.00;102189.47;5045602;28;20082;-71
2023/11/12 11:08:30;;;;;;;1.90;0.70;;;;;;;18.73;100.00;101988.84;5028278;28;20037;-70
2023/11/12 11:11:01;;;;;;;2.17;0.50;;;;;;;19.24;100.00;102011.38;5028865;28;20079;-71
2023/11/12 11:13:27;;;;;;;1.35;0.60;;;;;;;18.51;100.00;101724.13;5049748;28;20028;-70
2023/11/12 11:15:55;;;;;;;2.85;1.10;;;;;;;18.41;100.00;101682.34;5034884;28;20407;-69